createdAt,value
2018-09-12T04:58:18.488Z,99.90
2018-09-12T05:00:46.741Z,99.90
2018-09-12T05:03:14.984Z,99.90
2018-09-12T05:05:43.206Z,99.90
2018-09-12T05:08:11.456Z,99.90
2018-09-12T05:10:39.688Z,99.90
2018-09-12T05:13:07.903Z,99.90
2018-09-12T05:15:36.147Z,99.90
2018-09-12T05:18:04.387Z,99.90
2018-09-12T05:20:32.633Z,99.90
2018-09-12T05:23:00.867Z,99.90
2018-09-12T05:25:29.134Z,99.90
2018-09-12T05:27:57.354Z,99.90
2018-09-12T05:30:25.591Z,99.90
2018-09-12T05:32:53.805Z,99.90
2018-09-12T05:35:22.041Z,99.90
2018-09-12T05:37:50.264Z,99.90
2018-09-12T05:40:18.517Z,99.90
2018-09-12T05:42:46.759Z,99.90
2018-09-12T05:45:14.994Z,99.90
2018-09-12T05:47:43.212Z,99.90
2018-09-12T05:50:11.478Z,99.90
2018-09-12T05:52:39.721Z,99.90
2018-09-12T05:55:07.975Z,99.90
2018-09-12T05:57:37.135Z,99.90
2018-09-12T06:00:05.964Z,99.90
2018-09-12T06:02:34.192Z,99.90
2018-09-12T06:05:02.416Z,99.90
2018-09-12T06:07:30.635Z,99.90
2018-09-12T06:09:58.869Z,99.90
2018-09-12T06:12:27.084Z,99.90
2018-09-12T06:14:55.309Z,99.90
2018-09-12T06:17:23.532Z,99.90
2018-09-12T06:19:51.772Z,99.90
2018-09-12T06:22:20.072Z,99.20
2018-09-12T06:24:48.316Z,98.50
2018-09-12T06:27:16.546Z,98.70
2018-09-12T06:29:44.771Z,98.00
2018-09-12T06:32:12.979Z,98.20
2018-09-12T06:34:41.204Z,96.90
2018-09-12T06:37:09.479Z,97.40
2018-09-12T06:39:37.721Z,97.00
2018-09-12T06:42:05.924Z,96.00
2018-09-12T06:44:34.163Z,95.20
2018-09-12T06:47:02.383Z,94.30
2018-09-12T06:49:30.610Z,94.40
2018-09-12T06:51:58.828Z,93.80
2018-09-12T06:54:27.060Z,93.30
2018-09-12T06:56:55.294Z,92.00
2018-09-12T06:59:23.558Z,93.00
2018-09-12T07:01:51.771Z,91.50
2018-09-12T07:04:20.009Z,92.00
2018-09-12T07:06:48.232Z,91.60
2018-09-12T07:09:16.476Z,91.50
2018-09-12T07:11:44.704Z,91.80
2018-09-12T07:14:12.971Z,92.90
2018-09-12T07:16:41.177Z,92.60
2018-09-12T07:19:09.423Z,91.90
2018-09-12T07:21:37.674Z,90.70
2018-09-12T07:24:05.924Z,90.70
2018-09-12T07:26:34.152Z,91.70
2018-09-12T07:29:02.363Z,90.30
2018-09-12T07:31:30.594Z,90.50
2018-09-12T07:33:58.809Z,90.50
2018-09-12T07:36:27.040Z,90.40
2018-09-12T07:38:55.553Z,90.70
2018-09-12T07:41:23.797Z,90.30
2018-09-12T07:43:52.083Z,90.00
2018-09-12T07:46:20.315Z,88.80
2018-09-12T07:48:48.532Z,88.80
2018-09-12T07:51:16.777Z,88.10
2018-09-12T07:53:44.992Z,87.30
2018-09-12T07:56:13.269Z,87.70
2018-09-12T07:58:41.500Z,88.10
2018-09-12T08:01:09.751Z,86.90
2018-09-12T08:03:37.967Z,87.80
2018-09-12T08:06:06.468Z,86.20
2018-09-12T08:08:34.680Z,83.90
2018-09-12T08:11:02.916Z,83.10
2018-09-12T08:13:31.133Z,82.80
2018-09-12T08:15:59.381Z,85.30
2018-09-12T08:18:27.591Z,80.30
2018-09-12T08:20:55.841Z,81.60
2018-09-12T08:23:24.068Z,82.40
2018-09-12T08:25:52.287Z,82.10
2018-09-12T08:28:20.497Z,83.70
2018-09-12T08:30:48.728Z,81.80
2018-09-12T08:33:17.038Z,82.10
2018-09-12T08:35:45.264Z,79.60
2018-09-12T08:38:13.464Z,77.50
2018-09-12T08:40:41.695Z,75.20
2018-09-12T08:43:09.903Z,77.30
2018-09-12T08:45:38.127Z,78.10
2018-09-12T08:48:06.371Z,76.90
2018-09-12T08:50:34.614Z,76.10
2018-09-12T08:53:02.926Z,76.80
2018-09-12T08:55:31.084Z,75.50
2018-09-12T08:57:59.288Z,78.70
2018-09-12T09:00:33.048Z,75.30
2018-09-12T09:03:01.335Z,73.40
2018-09-12T09:05:29.632Z,73.70
2018-09-12T09:07:57.916Z,73.20
2018-09-12T09:10:26.156Z,73.40
2018-09-12T09:12:55.296Z,72.90
2018-09-12T09:15:23.536Z,72.20
2018-09-12T09:17:51.813Z,69.70
2018-09-12T09:20:20.037Z,71.90
2018-09-12T09:22:48.348Z,70.70
2018-09-12T09:25:16.595Z,70.50
2018-09-12T09:27:45.054Z,69.40
2018-09-12T09:30:13.279Z,70.40
2018-09-12T09:32:41.776Z,70.60
2018-09-12T09:35:10.321Z,70.50
2018-09-12T09:37:39.252Z,69.00
2018-09-12T09:40:08.283Z,71.00
2018-09-12T09:42:36.679Z,70.30
2018-09-12T09:45:05.121Z,68.20
2018-09-12T09:47:33.447Z,69.10
2018-09-12T09:50:01.670Z,67.70
2018-09-12T09:52:29.915Z,69.30
2018-09-12T09:54:58.178Z,67.00
2018-09-12T09:57:26.394Z,66.00
2018-09-12T09:59:54.605Z,64.90
2018-09-12T10:02:28.380Z,65.50
2018-09-12T10:05:01.952Z,63.80
2018-09-12T10:07:35.421Z,62.90
2018-09-12T10:10:04.271Z,64.00
2018-09-12T10:12:33.076Z,64.40
2018-09-12T10:15:02.348Z,63.20
2018-09-12T10:17:30.604Z,64.00
2018-09-12T10:19:59.040Z,62.40
2018-09-12T10:22:27.301Z,63.30
2018-09-12T10:24:55.516Z,67.40
2018-09-12T10:27:23.739Z,64.80
2018-09-12T10:29:52.009Z,62.40
2018-09-12T10:32:20.239Z,62.70
2018-09-12T10:34:48.447Z,61.40
2018-09-12T10:37:17.678Z,62.80
2018-09-12T10:39:45.919Z,62.80
2018-09-12T10:42:14.149Z,60.80
2018-09-12T10:44:42.795Z,62.90
2018-09-12T10:47:11.036Z,61.70
2018-09-12T10:49:39.247Z,60.80
2018-09-12T10:52:07.477Z,65.70
2018-09-12T10:54:35.696Z,61.40
2018-09-12T10:57:03.916Z,61.10
2018-09-12T10:59:32.134Z,62.40
2018-09-12T11:02:00.341Z,64.60
2018-09-12T11:04:28.721Z,60.30
2018-09-12T11:06:56.897Z,60.10
2018-09-12T11:09:25.158Z,62.50
2018-09-12T11:11:53.385Z,60.10
2018-09-12T11:14:21.624Z,60.20
2018-09-12T11:16:49.838Z,60.60
2018-09-12T11:19:18.085Z,59.30
2018-09-12T11:21:46.332Z,59.30
2018-09-12T11:24:14.566Z,58.30
2018-09-12T11:26:42.808Z,60.70
2018-09-12T11:29:11.061Z,57.80
2018-09-12T11:31:39.280Z,60.00
2018-09-12T11:34:07.556Z,59.90
2018-09-12T11:36:35.744Z,57.90
2018-09-12T11:39:05.983Z,57.20
2018-09-12T11:41:34.203Z,59.10
2018-09-12T11:44:02.426Z,58.10
2018-09-12T11:46:30.637Z,57.60
2018-09-12T11:48:58.926Z,58.10
2018-09-12T11:51:27.123Z,56.30
2018-09-12T11:53:55.374Z,57.60
2018-09-12T11:56:23.627Z,58.60
2018-09-12T11:58:51.852Z,55.80
2018-09-12T12:01:20.129Z,55.90
2018-09-12T12:03:48.360Z,55.60
2018-09-12T12:06:16.588Z,56.30
2018-09-12T12:08:44.822Z,55.20
2018-09-12T12:11:13.167Z,56.20
2018-09-12T12:13:41.380Z,57.00
2018-09-12T12:16:09.585Z,54.80
2018-09-12T12:18:37.817Z,56.70
2018-09-12T12:21:06.092Z,56.70
2018-09-12T12:23:34.356Z,56.80
2018-09-12T12:26:02.584Z,55.20
2018-09-12T12:28:30.865Z,57.70
2018-09-12T12:30:59.084Z,56.60
2018-09-12T12:33:27.324Z,56.00
2018-09-12T12:35:55.537Z,54.90
2018-09-12T12:38:23.781Z,53.10
2018-09-12T12:40:52.001Z,53.60
2018-09-12T12:43:20.236Z,56.30
2018-09-12T12:45:48.443Z,53.10
2018-09-12T12:48:16.681Z,53.60
2018-09-12T12:50:44.905Z,54.40
2018-09-12T12:53:13.161Z,54.30
2018-09-12T12:55:41.385Z,52.70
2018-09-12T12:58:09.592Z,55.10
2018-09-12T13:00:37.810Z,54.70
2018-09-12T13:03:06.015Z,53.60
2018-09-12T13:05:34.303Z,53.30
2018-09-12T13:08:02.493Z,53.30
2018-09-12T13:10:30.733Z,51.80
2018-09-12T13:12:58.950Z,52.80
2018-09-12T13:15:27.217Z,52.30
2018-09-12T13:17:55.648Z,51.80
2018-09-12T13:20:23.867Z,51.10
2018-09-12T13:22:52.099Z,52.70
2018-09-12T13:25:20.337Z,54.30
2018-09-12T13:27:48.619Z,53.70
2018-09-12T13:30:16.849Z,51.40
2018-09-12T13:32:45.084Z,50.70
2018-09-12T13:35:13.332Z,51.90
2018-09-12T13:37:41.550Z,51.40
2018-09-12T13:40:09.795Z,50.30
2018-09-12T13:42:38.119Z,49.50
2018-09-12T13:45:06.364Z,50.30
2018-09-12T13:47:34.593Z,49.90
2018-09-12T13:50:02.828Z,49.50
2018-09-12T13:52:31.136Z,48.70
2018-09-12T13:54:59.369Z,49.40
2018-09-12T13:57:27.583Z,49.40
2018-09-12T13:59:55.829Z,50.10
2018-09-12T14:02:24.076Z,50.20
2018-09-12T14:04:52.319Z,51.90
2018-09-12T14:07:20.530Z,51.20
2018-09-12T14:09:48.763Z,51.20
2018-09-12T14:12:16.984Z,51.00
2018-09-12T14:14:45.218Z,50.20
2018-09-12T14:17:13.446Z,50.80
2018-09-12T14:19:41.689Z,51.20
2018-09-12T14:22:09.997Z,49.10
2018-09-12T14:24:38.241Z,48.90
2018-09-12T14:27:06.452Z,51.10
2018-09-12T14:29:34.687Z,49.30
2018-09-12T14:32:02.953Z,50.80
2018-09-12T14:34:31.177Z,51.90
2018-09-12T14:36:59.391Z,50.80
2018-09-12T14:39:27.693Z,51.70
2018-09-12T14:41:55.872Z,52.00
2018-09-12T14:44:24.099Z,51.20
2018-09-12T14:46:52.331Z,51.10
2018-09-12T14:49:20.533Z,52.90
2018-09-12T14:51:48.817Z,53.10
2018-09-12T14:54:17.021Z,54.40
2018-09-12T14:56:45.258Z,56.20
2018-09-12T14:59:13.479Z,55.90
2018-09-12T15:01:41.704Z,53.10
2018-09-12T15:04:09.904Z,54.90
2018-09-12T15:06:38.133Z,55.30
2018-09-12T15:09:08.769Z,53.80
2018-09-12T15:11:37.013Z,54.40
2018-09-12T15:14:05.275Z,53.50
2018-09-12T15:16:34.773Z,54.60
2018-09-12T15:19:03.083Z,52.90
2018-09-12T15:21:31.346Z,53.10
2018-09-12T15:23:59.691Z,53.90
2018-09-12T15:26:27.911Z,52.10
2018-09-12T15:28:56.116Z,53.30
2018-09-12T15:31:24.447Z,52.40
2018-09-12T15:33:52.664Z,52.40
2018-09-12T15:36:20.889Z,52.50
2018-09-12T15:38:49.101Z,51.00
2018-09-12T15:41:17.373Z,53.50
2018-09-12T15:43:45.561Z,54.00
2018-09-12T15:46:13.788Z,52.50
2018-09-12T15:48:42.016Z,53.30
2018-09-12T15:51:10.254Z,58.00
2018-09-12T15:53:38.464Z,62.30
2018-09-12T15:56:06.689Z,65.50
2018-09-12T15:58:34.892Z,66.50
2018-09-12T16:01:03.133Z,68.60
2018-09-12T16:03:31.331Z,69.30
2018-09-12T16:05:59.627Z,70.90
2018-09-12T16:08:27.841Z,71.70
2018-09-12T16:10:56.081Z,72.60
2018-09-12T16:13:24.296Z,73.70
2018-09-12T16:15:52.522Z,75.30
2018-09-12T16:18:20.744Z,75.50
2018-09-12T16:20:49.821Z,76.20
2018-09-12T16:23:18.036Z,76.80
2018-09-12T16:25:46.274Z,76.80
2018-09-12T16:28:14.505Z,78.20
2018-09-12T16:30:42.732Z,79.70
2018-09-12T16:33:10.956Z,80.70
2018-09-12T16:35:39.189Z,81.60
2018-09-12T16:38:07.407Z,82.60
2018-09-12T16:40:35.660Z,83.90
2018-09-12T16:43:03.897Z,85.30
2018-09-12T16:45:32.108Z,85.60
2018-09-12T16:48:00.343Z,87.20
2018-09-12T16:50:28.591Z,88.00
2018-09-12T16:52:56.815Z,89.50
2018-09-12T16:55:25.041Z,90.30
2018-09-12T16:57:53.275Z,91.50
2018-09-12T17:00:21.486Z,91.40
2018-09-12T17:02:49.770Z,92.00
2018-09-12T17:05:17.971Z,92.60
2018-09-12T17:07:46.204Z,93.00
2018-09-12T17:10:14.427Z,93.60
2018-09-12T17:12:42.687Z,94.00
2018-09-12T17:15:10.935Z,94.60
2018-09-12T17:17:39.168Z,95.50
2018-09-12T17:20:07.498Z,95.50
2018-09-12T17:22:35.756Z,95.90
2018-09-12T17:25:03.983Z,96.40
2018-09-12T17:27:32.224Z,96.70
2018-09-12T17:30:00.468Z,97.40
2018-09-12T17:32:28.728Z,97.80
2018-09-12T17:34:57.092Z,97.70
2018-09-12T17:37:25.328Z,97.40
2018-09-12T17:39:53.535Z,97.60
2018-09-12T17:42:21.771Z,97.80
2018-09-12T17:44:49.983Z,97.90
2018-09-12T17:47:18.203Z,98.40
2018-09-12T17:49:46.408Z,98.70
2018-09-12T17:52:14.631Z,99.00
2018-09-12T17:54:42.863Z,99.20
2018-09-12T17:57:11.106Z,99.40
2018-09-12T17:59:39.337Z,99.40
2018-09-12T18:02:07.564Z,99.80
2018-09-12T18:04:35.763Z,99.90
2018-09-12T18:07:03.992Z,99.90
2018-09-12T18:09:32.211Z,99.90
2018-09-12T18:12:00.435Z,99.90
2018-09-12T18:14:28.656Z,99.90
2018-09-12T18:16:56.877Z,99.90
2018-09-12T18:19:25.079Z,99.90
2018-09-12T18:21:53.347Z,99.90
2018-09-12T18:24:21.621Z,99.90
2018-09-12T18:26:49.814Z,99.90
2018-09-12T18:29:18.515Z,99.90
2018-09-12T18:31:46.764Z,99.90
2018-09-12T18:34:14.981Z,99.90
2018-09-12T18:36:43.212Z,99.90
2018-09-12T18:39:11.701Z,99.90
2018-09-12T18:41:39.928Z,99.90
2018-09-12T18:44:08.525Z,99.90
2018-09-12T18:46:36.742Z,99.90
2018-09-12T18:49:04.985Z,99.90
2018-09-12T18:51:33.203Z,99.90
2018-09-12T18:54:01.459Z,99.90
2018-09-12T18:56:29.676Z,99.90
2018-09-12T18:58:57.896Z,99.90
2018-09-12T19:01:26.116Z,99.90
2018-09-12T19:03:54.336Z,99.90
2018-09-12T19:06:22.556Z,99.90
2018-09-12T19:08:50.785Z,99.90
2018-09-12T19:11:19.037Z,99.90
2018-09-12T19:13:47.263Z,99.90
2018-09-12T19:16:15.485Z,99.90
2018-09-12T19:18:44.035Z,99.90
2018-09-12T19:21:12.204Z,99.90
2018-09-12T19:23:40.461Z,99.90
2018-09-12T19:26:08.816Z,99.90
2018-09-12T19:28:37.141Z,99.90
2018-09-12T19:31:05.348Z,99.90
2018-09-12T19:33:33.585Z,99.90
2018-09-12T19:36:01.919Z,99.90
2018-09-12T19:38:30.083Z,99.90
2018-09-12T19:40:58.287Z,99.90
2018-09-12T19:43:26.511Z,99.90
2018-09-12T19:45:54.716Z,99.90
2018-09-12T19:48:22.936Z,99.90
2018-09-12T19:50:51.141Z,99.90
2018-09-12T19:53:19.359Z,99.90
2018-09-12T19:55:47.564Z,99.90
2018-09-12T19:58:15.788Z,99.90
2018-09-12T20:00:43.992Z,99.90
2018-09-12T20:03:12.217Z,99.90
2018-09-12T20:05:40.423Z,99.90
2018-09-12T20:08:08.648Z,99.90
2018-09-12T20:10:36.856Z,99.90
2018-09-12T20:13:05.176Z,99.90
2018-09-12T20:15:33.376Z,99.90
2018-09-12T20:18:01.613Z,99.90
2018-09-12T20:20:29.845Z,99.90
2018-09-12T20:22:58.120Z,99.90
2018-09-12T20:25:26.335Z,99.90
2018-09-12T20:27:54.556Z,99.90
